createdAt,value
2022-12-18T00:01:37.500Z,7.53
2022-12-18T00:04:07.528Z,7.13
2022-12-18T00:06:36.779Z,7.80
2022-12-18T00:09:09.351Z,8.73
2022-12-18T00:11:36.916Z,9.17
2022-12-18T00:14:04.705Z,7.70
2022-12-18T00:16:34.174Z,8.05
2022-12-18T00:19:02.302Z,7.70
2022-12-18T00:21:32.117Z,7.20
2022-12-18T00:24:00.547Z,7.10
2022-12-18T00:26:31.340Z,7.03
2022-12-18T00:29:05.801Z,7.40
2022-12-18T00:31:34.033Z,7.30
2022-12-18T00:34:02.941Z,7.20
2022-12-18T00:36:33.636Z,6.60
2022-12-18T00:39:03.604Z,6.67
2022-12-18T00:41:50.227Z,6.53
2022-12-18T00:44:19.793Z,6.03
2022-12-18T00:46:49.125Z,6.73
2022-12-18T00:49:18.955Z,6.77
2022-12-18T00:51:47.725Z,5.90
2022-12-18T00:54:16.029Z,6.70
2022-12-18T00:56:50.967Z,6.87
2022-12-18T00:59:19.892Z,6.97
2022-12-18T01:01:48.382Z,6.60
2022-12-18T01:04:16.561Z,5.47
2022-12-18T01:06:47.017Z,6.83
2022-12-18T01:09:14.895Z,6.38
2022-12-18T01:11:43.495Z,6.47
2022-12-18T01:14:12.544Z,7.47
2022-12-18T01:16:40.439Z,6.63
2022-12-18T01:19:08.270Z,6.32
2022-12-18T01:24:06.022Z,7.20
2022-12-18T01:26:34.452Z,6.63
2022-12-18T01:29:02.088Z,7.13
2022-12-18T01:31:33.262Z,6.53
2022-12-18T01:34:05.470Z,6.60
2022-12-18T01:36:35.711Z,7.43
2022-12-18T01:39:07.140Z,7.93
2022-12-18T01:41:54.885Z,6.97
2022-12-18T01:44:57.034Z,8.17
2022-12-18T01:47:40.411Z,7.63
2022-12-18T01:50:24.574Z,7.30
2022-12-18T01:52:59.138Z,7.43
2022-12-18T01:55:31.238Z,7.83
2022-12-18T01:58:01.513Z,8.23
2022-12-18T02:00:30.295Z,6.43
2022-12-18T02:06:36.248Z,8.30
2022-12-18T02:09:24.768Z,10.05
2022-12-18T02:12:12.177Z,8.10
2022-12-18T02:14:44.678Z,8.63
2022-12-18T02:17:21.940Z,9.67
2022-12-18T02:20:20.516Z,4.57
2022-12-18T02:23:31.168Z,9.27
2022-12-18T02:26:14.350Z,9.90
2022-12-18T02:29:04.055Z,9.60
2022-12-18T02:31:38.050Z,9.90
2022-12-18T02:34:09.109Z,10.40
2022-12-18T02:36:44.957Z,10.63
2022-12-18T02:39:14.884Z,9.67
2022-12-18T02:41:53.294Z,9.07
2022-12-18T02:44:23.274Z,9.70
2022-12-18T02:46:55.015Z,9.25
2022-12-18T02:49:32.275Z,9.63
2022-12-18T02:55:11.168Z,10.65
2022-12-18T02:58:06.737Z,10.83
2022-12-18T03:00:54.212Z,9.57
2022-12-18T03:03:44.663Z,10.07
2022-12-18T03:06:21.670Z,10.40
2022-12-18T03:08:55.109Z,9.60
2022-12-18T03:11:45.546Z,10.47
2022-12-18T03:14:18.737Z,10.37
2022-12-18T03:16:52.209Z,11.07
2022-12-18T03:19:25.281Z,10.07
2022-12-18T03:21:57.743Z,10.07
2022-12-18T03:24:29.289Z,10.73
2022-12-18T03:27:09.410Z,10.70
2022-12-18T03:29:54.491Z,10.37
2022-12-18T03:32:44.548Z,11.07
2022-12-18T03:35:19.501Z,8.37
2022-12-18T03:37:47.761Z,10.13
2022-12-18T03:40:17.085Z,11.23
2022-12-18T03:43:10.116Z,8.30
2022-12-18T03:45:43.516Z,10.70
2022-12-18T03:48:21.205Z,9.80
2022-12-18T03:51:03.171Z,10.57
2022-12-18T03:53:55.822Z,11.07
2022-12-18T03:56:32.036Z,12.53
2022-12-18T03:59:02.635Z,10.90
2022-12-18T04:01:35.211Z,10.60
2022-12-18T04:04:05.372Z,11.83
2022-12-18T04:06:37.151Z,8.77
2022-12-18T04:09:06.085Z,11.93
2022-12-18T04:11:37.881Z,12.23
2022-12-18T04:14:09.163Z,8.40
2022-12-18T04:16:38.700Z,9.83
2022-12-18T04:19:09.849Z,11.67
2022-12-18T04:21:41.799Z,12.23
2022-12-18T04:24:11.874Z,12.70
2022-12-18T04:26:45.979Z,13.30
2022-12-18T04:29:19.196Z,13.10
2022-12-18T04:31:47.246Z,12.82
2022-12-18T04:34:15.127Z,10.13
2022-12-18T04:36:50.005Z,12.90
2022-12-18T04:39:18.389Z,13.83
2022-12-18T04:41:46.762Z,13.07
2022-12-18T04:44:15.422Z,13.03
2022-12-18T04:46:43.666Z,13.07
2022-12-18T04:49:14.147Z,12.43
2022-12-18T04:51:41.960Z,14.33
2022-12-18T04:54:09.838Z,12.82
2022-12-18T04:56:37.715Z,13.30
2022-12-18T04:59:05.888Z,10.23
2022-12-18T05:01:35.311Z,12.93
2022-12-18T05:04:05.155Z,14.60
2022-12-18T05:06:32.826Z,14.77
2022-12-18T05:09:00.596Z,16.33
2022-12-18T05:11:28.379Z,15.43
2022-12-18T05:13:56.062Z,14.48
2022-12-18T05:16:24.117Z,15.77
2022-12-18T05:21:19.128Z,16.58
2022-12-18T05:23:46.980Z,16.77
2022-12-18T05:26:19.740Z,16.70
2022-12-18T05:28:47.964Z,16.53
2022-12-18T05:31:16.207Z,14.93
2022-12-18T05:33:44.092Z,15.80
2022-12-18T05:38:40.775Z,14.93
2022-12-18T05:41:09.581Z,16.13
2022-12-18T05:43:39.407Z,16.93
2022-12-18T05:46:10.021Z,13.03
2022-12-18T05:48:37.900Z,17.00
2022-12-18T05:51:08.401Z,17.33
2022-12-18T05:53:38.004Z,17.93
2022-12-18T05:56:08.683Z,16.63
2022-12-18T05:58:36.636Z,16.37
2022-12-18T06:01:17.279Z,16.80
2022-12-18T06:03:45.723Z,16.90
2022-12-18T06:06:16.318Z,15.63
2022-12-18T06:08:46.429Z,16.43
2022-12-18T06:11:17.748Z,15.30
2022-12-18T06:13:47.544Z,16.93
2022-12-18T06:16:15.628Z,15.57
2022-12-18T06:18:43.556Z,16.47
2022-12-18T06:21:11.531Z,19.38
2022-12-18T06:23:40.633Z,16.00
2022-12-18T06:26:10.220Z,16.93
2022-12-18T06:28:38.108Z,17.90
2022-12-18T06:31:06.800Z,17.25
2022-12-18T06:33:35.612Z,12.30
2022-12-18T06:36:14.551Z,18.43
2022-12-18T06:38:44.734Z,18.60
2022-12-18T06:41:21.160Z,17.63
2022-12-18T06:43:48.899Z,18.70
2022-12-18T06:46:16.968Z,18.25
2022-12-18T06:51:20.930Z,18.53
2022-12-18T06:53:48.537Z,16.30
2022-12-18T06:56:16.533Z,18.38
2022-12-18T06:58:44.693Z,19.05
2022-12-18T07:01:13.753Z,18.27
2022-12-18T07:03:42.741Z,18.17
2022-12-18T07:06:16.972Z,19.20
2022-12-18T07:08:45.994Z,17.40
2022-12-18T07:11:14.021Z,19.57
2022-12-18T07:13:42.014Z,16.30
2022-12-18T07:18:48.650Z,12.73
2022-12-18T07:21:18.966Z,16.52
2022-12-18T07:23:49.233Z,17.00
2022-12-18T07:26:20.124Z,13.53
2022-12-18T07:28:47.943Z,20.40
2022-12-18T07:31:18.614Z,14.18
2022-12-18T07:33:47.403Z,18.83
2022-12-18T07:36:15.467Z,19.37
2022-12-18T07:42:08.572Z,14.73
2022-12-18T07:44:37.020Z,17.63
2022-12-18T07:47:09.156Z,20.23
2022-12-18T07:49:39.536Z,18.00
2022-12-18T07:52:07.192Z,19.00
2022-12-18T07:54:34.864Z,20.48
2022-12-18T07:57:02.432Z,18.98
2022-12-18T07:59:30.149Z,15.57
2022-12-18T08:01:57.956Z,19.58
2022-12-18T08:04:26.456Z,22.05
2022-12-18T08:06:54.158Z,20.87
2022-12-18T08:09:22.296Z,19.92
2022-12-18T08:11:50.085Z,18.92
2022-12-18T08:14:17.763Z,20.90
2022-12-18T08:16:45.413Z,20.42
2022-12-18T08:19:13.150Z,19.58
2022-12-18T08:21:40.903Z,19.15
2022-12-18T08:24:11.829Z,17.05
2022-12-18T08:26:39.703Z,19.03
2022-12-18T08:29:07.293Z,19.73
2022-12-18T08:31:35.375Z,20.17
2022-12-18T08:36:30.599Z,19.52
2022-12-18T08:38:58.446Z,18.90
2022-12-18T08:41:26.560Z,19.80
2022-12-18T08:44:12.796Z,14.35
2022-12-18T08:46:43.490Z,19.53
2022-12-18T08:49:12.322Z,19.80
2022-12-18T08:51:40.704Z,18.90
2022-12-18T08:54:08.748Z,19.93
2022-12-18T08:56:36.564Z,13.20
2022-12-18T08:59:05.592Z,19.67
2022-12-18T09:01:33.337Z,18.43
2022-12-18T09:04:02.187Z,20.33
2022-12-18T09:06:29.786Z,18.67
2022-12-18T09:08:58.811Z,20.73
2022-12-18T09:11:28.702Z,15.57
2022-12-18T09:13:57.897Z,19.07
2022-12-18T09:16:31.995Z,19.73
2022-12-18T09:19:01.097Z,18.33
2022-12-18T09:21:36.743Z,17.63
2022-12-18T09:24:09.045Z,16.97
2022-12-18T09:26:37.481Z,17.73
2022-12-18T09:29:05.678Z,18.13
2022-12-18T09:31:33.548Z,19.13
2022-12-18T09:34:01.400Z,18.50
2022-12-18T09:36:29.259Z,15.70
2022-12-18T09:38:57.004Z,18.23
2022-12-18T09:41:42.607Z,16.40
2022-12-18T09:44:17.691Z,13.60
2022-12-18T09:46:49.659Z,14.03
2022-12-18T09:49:20.700Z,14.93
2022-12-18T09:51:55.645Z,15.40
2022-12-18T09:54:44.741Z,16.70
2022-12-18T09:57:16.807Z,10.13
2022-12-18T09:59:51.693Z,14.70
2022-12-18T10:02:28.007Z,15.07
2022-12-18T10:05:05.621Z,13.70
2022-12-18T10:07:42.247Z,14.55
2022-12-18T10:10:31.713Z,15.13
2022-12-18T10:13:24.103Z,13.83
2022-12-18T10:15:52.400Z,16.00
2022-12-18T10:20:58.259Z,15.67
2022-12-18T10:23:45.090Z,10.80
2022-12-18T10:26:16.445Z,12.47
2022-12-18T10:28:45.265Z,15.60
2022-12-18T10:31:19.408Z,15.13
2022-12-18T10:33:47.330Z,14.53
2022-12-18T10:36:15.440Z,14.95
2022-12-18T10:41:23.090Z,13.90
2022-12-18T10:44:17.468Z,11.80
2022-12-18T10:46:57.186Z,13.43
2022-12-18T10:49:30.616Z,13.50
2022-12-18T10:52:21.965Z,13.30
2022-12-18T10:54:59.934Z,9.17
2022-12-18T10:57:27.474Z,13.23
2022-12-18T10:59:57.320Z,14.57
2022-12-18T11:02:40.336Z,13.47
2022-12-18T11:05:38.020Z,12.67
2022-12-18T11:08:05.652Z,12.50
2022-12-18T11:10:48.164Z,12.68
2022-12-18T11:13:21.819Z,13.30
2022-12-18T11:15:50.566Z,12.17
2022-12-18T11:18:30.661Z,14.23
2022-12-18T11:21:07.187Z,13.17
2022-12-18T11:23:36.497Z,13.13
2022-12-18T11:26:07.089Z,13.27
2022-12-18T11:28:53.907Z,11.57
2022-12-18T11:31:32.699Z,12.23
2022-12-18T11:34:27.443Z,11.60
2022-12-18T11:36:49.158Z,13.13
2022-12-18T11:39:32.283Z,12.00
2022-12-18T11:42:17.669Z,13.37
2022-12-18T11:45:14.342Z,12.03
2022-12-18T11:48:16.133Z,11.10
2022-12-18T11:50:58.375Z,11.97
2022-12-18T11:53:29.362Z,11.87
2022-12-18T11:56:16.905Z,11.20
2022-12-18T11:59:13.429Z,10.80
2022-12-18T12:01:47.299Z,12.70
2022-12-18T12:04:35.302Z,12.03
2022-12-18T12:07:27.556Z,12.43
2022-12-18T12:10:11.259Z,12.30
2022-12-18T12:12:50.504Z,10.97
2022-12-18T12:15:32.052Z,12.27
2022-12-18T12:18:27.034Z,11.87
2022-12-18T12:21:13.578Z,12.73
2022-12-18T12:24:01.205Z,13.30
2022-12-18T12:26:48.996Z,10.00
2022-12-18T12:29:44.209Z,12.82
2022-12-18T12:32:42.341Z,12.27
2022-12-18T12:35:37.916Z,12.37
2022-12-18T12:41:33.141Z,13.27
2022-12-18T12:44:07.117Z,13.00
2022-12-18T12:49:49.971Z,13.73
2022-12-18T12:52:28.391Z,9.57
2022-12-18T12:54:58.078Z,12.43
2022-12-18T12:57:35.387Z,13.83
2022-12-18T13:00:20.373Z,13.18
2022-12-18T13:03:10.155Z,13.57
2022-12-18T13:05:59.644Z,13.10
2022-12-18T13:08:33.912Z,14.03
2022-12-18T13:11:21.918Z,14.27
2022-12-18T13:13:56.197Z,13.77
2022-12-18T13:16:28.628Z,14.37
2022-12-18T13:19:00.328Z,17.07
2022-12-18T13:21:44.421Z,11.77
2022-12-18T13:24:31.983Z,13.17
2022-12-18T13:27:01.137Z,10.73
2022-12-18T13:29:47.435Z,15.60
2022-12-18T13:32:26.718Z,15.47
2022-12-18T13:35:23.879Z,13.67
2022-12-18T13:37:56.163Z,14.13
2022-12-18T13:40:57.196Z,14.73
2022-12-18T13:43:31.732Z,13.53
2022-12-18T13:46:30.304Z,13.23
2022-12-18T13:49:05.563Z,16.80
2022-12-18T13:51:36.277Z,13.53
2022-12-18T13:54:33.864Z,14.80
2022-12-18T13:57:02.552Z,14.85
2022-12-18T13:59:41.767Z,13.73
2022-12-18T14:02:23.577Z,12.60
2022-12-18T14:04:52.308Z,14.70
2022-12-18T14:07:21.140Z,14.83
2022-12-18T14:10:06.442Z,12.43
2022-12-18T14:13:01.128Z,12.80
2022-12-18T14:15:42.093Z,9.50
2022-12-18T14:18:24.109Z,15.40
2022-12-18T14:20:54.325Z,12.10
2022-12-18T14:23:42.295Z,13.83
2022-12-18T14:26:26.404Z,15.20
2022-12-18T14:28:54.939Z,16.03
2022-12-18T14:31:32.965Z,15.43
2022-12-18T14:34:00.756Z,15.17
2022-12-18T14:36:29.785Z,15.75
2022-12-18T14:38:59.561Z,16.77
2022-12-18T14:41:27.653Z,15.83
2022-12-18T14:43:56.635Z,12.68
2022-12-18T14:46:36.427Z,14.63
2022-12-18T14:49:24.873Z,11.33
2022-12-18T14:51:56.642Z,11.10
2022-12-18T14:54:27.226Z,15.07
2022-12-18T14:57:06.238Z,13.83
2022-12-18T14:59:34.320Z,12.87
2022-12-18T15:02:26.529Z,12.87
2022-12-18T15:05:30.576Z,12.60
2022-12-18T15:08:01.144Z,11.60
2022-12-18T15:10:31.353Z,13.80
2022-12-18T15:13:00.980Z,14.27
2022-12-18T15:15:35.286Z,15.43
2022-12-18T15:18:09.482Z,12.60
2022-12-18T15:20:56.230Z,16.13
2022-12-18T15:23:27.605Z,15.13
2022-12-18T15:26:07.022Z,14.70
2022-12-18T15:28:53.220Z,15.17
2022-12-18T15:31:33.328Z,14.37
2022-12-18T15:34:09.062Z,14.63
2022-12-18T15:36:37.589Z,13.73
2022-12-18T15:39:06.848Z,13.33
2022-12-18T15:41:37.171Z,16.77
2022-12-18T15:44:25.848Z,13.13
2022-12-18T15:46:53.797Z,13.60
2022-12-18T15:49:21.654Z,13.57
2022-12-18T15:51:59.330Z,10.82
2022-12-18T15:57:31.010Z,12.97
2022-12-18T15:59:59.563Z,13.27
2022-12-18T16:02:29.090Z,11.07
2022-12-18T16:04:58.708Z,13.50
2022-12-18T16:07:29.148Z,12.98
2022-12-18T16:09:57.610Z,12.63
2022-12-18T16:12:26.990Z,9.17
2022-12-18T16:14:54.920Z,12.73
2022-12-18T16:17:22.964Z,11.70
2022-12-18T16:19:50.911Z,16.63
2022-12-18T16:22:29.214Z,12.20
2022-12-18T16:24:58.015Z,13.93
2022-12-18T16:27:26.213Z,11.68
2022-12-18T16:32:23.332Z,11.57
2022-12-18T16:34:51.442Z,12.98
2022-12-18T16:37:19.039Z,14.88
2022-12-18T16:39:46.728Z,12.48
2022-12-18T16:42:20.856Z,7.43
2022-12-18T16:44:50.128Z,10.30
2022-12-18T16:47:18.366Z,10.57
2022-12-18T16:49:46.559Z,9.20
2022-12-18T16:54:41.959Z,8.57
2022-12-18T16:57:14.503Z,8.70
2022-12-18T16:59:42.455Z,8.23
2022-12-18T17:02:21.810Z,8.50
2022-12-18T17:04:54.972Z,8.63
2022-12-18T17:07:23.372Z,9.00
2022-12-18T17:12:18.844Z,8.50
2022-12-18T17:14:46.570Z,9.50
2022-12-18T17:17:23.298Z,10.73
2022-12-18T17:19:52.731Z,7.93
2022-12-18T17:22:21.671Z,10.85
2022-12-18T17:24:49.396Z,10.60
2022-12-18T17:27:16.973Z,11.27
2022-12-18T17:29:48.264Z,10.35
2022-12-18T17:32:17.888Z,10.23
2022-12-18T17:34:45.588Z,9.65
2022-12-18T17:37:13.843Z,10.38
2022-12-18T17:39:42.214Z,9.30
2022-12-18T17:42:15.744Z,9.75
2022-12-18T17:44:44.117Z,10.00
2022-12-18T17:47:13.832Z,10.68
2022-12-18T17:49:41.495Z,9.75
2022-12-18T17:52:09.415Z,10.05
2022-12-18T17:54:40.068Z,10.55
2022-12-18T17:57:08.052Z,9.57
2022-12-18T17:59:35.802Z,9.90
2022-12-18T18:02:03.790Z,10.73
2022-12-18T18:04:32.823Z,9.45
2022-12-18T18:07:00.483Z,8.82
2022-12-18T18:09:28.298Z,9.98
2022-12-18T18:12:15.912Z,10.00
2022-12-18T18:14:43.898Z,10.93
2022-12-18T18:17:12.034Z,11.50
2022-12-18T18:19:40.144Z,13.38
2022-12-18T18:22:08.356Z,11.63
2022-12-18T18:24:35.898Z,11.65
2022-12-18T18:27:03.580Z,7.78
2022-12-18T18:29:31.439Z,11.40
2022-12-18T18:31:59.731Z,11.30
2022-12-18T18:34:31.712Z,12.95
2022-12-18T18:37:02.003Z,12.77
2022-12-18T18:39:29.809Z,13.02
2022-12-18T18:41:57.592Z,11.63
2022-12-18T18:44:26.017Z,13.68
2022-12-18T18:46:58.412Z,13.13
2022-12-18T18:49:28.068Z,13.63
2022-12-18T18:51:57.504Z,13.73
2022-12-18T18:54:27.284Z,16.15
2022-12-18T19:02:15.785Z,13.60
2022-12-18T19:04:45.622Z,13.65
2022-12-18T19:09:32.786Z,15.02
2022-12-18T19:12:19.057Z,15.13
2022-12-18T19:14:46.854Z,16.08
2022-12-18T19:17:14.453Z,16.50
2022-12-18T19:19:43.038Z,16.48
2022-12-18T19:22:11.284Z,18.33
2022-12-18T19:24:39.457Z,17.80
2022-12-18T19:27:07.486Z,15.43
2022-12-18T19:29:35.198Z,16.95
2022-12-18T19:32:04.913Z,13.82
2022-12-18T19:34:32.691Z,18.92
2022-12-18T19:37:00.556Z,23.63
2022-12-18T19:39:28.329Z,16.20
2022-12-18T19:41:56.083Z,14.70
2022-12-18T19:44:23.985Z,15.95
2022-12-18T19:46:51.943Z,15.70
2022-12-18T19:49:19.589Z,16.92
2022-12-18T19:51:47.356Z,17.45
2022-12-18T19:54:18.066Z,17.27
2022-12-18T19:56:46.371Z,16.38
2022-12-18T19:59:59.756Z,12.80
2022-12-18T20:02:27.565Z,14.40
2022-12-18T20:04:55.361Z,14.70
2022-12-18T20:07:22.909Z,15.38
2022-12-18T20:09:55.331Z,15.32
2022-12-18T20:12:27.845Z,15.07
2022-12-18T20:14:57.045Z,12.07
2022-12-18T20:17:24.708Z,13.75
2022-12-18T20:19:52.902Z,13.02
2022-12-18T20:22:21.873Z,13.98
2022-12-18T20:24:49.503Z,13.25
2022-12-18T20:27:19.582Z,16.13
2022-12-18T20:29:48.862Z,15.90
2022-12-18T20:32:17.358Z,15.05
2022-12-18T20:37:13.138Z,12.70
2022-12-18T20:39:41.029Z,12.38
2022-12-18T20:42:09.423Z,12.57
2022-12-18T20:44:37.494Z,13.93
2022-12-18T20:47:08.434Z,13.38
2022-12-18T20:49:37.569Z,12.50
2022-12-18T20:52:07.274Z,13.50
2022-12-18T20:54:35.315Z,12.07
2022-12-18T20:57:02.974Z,13.07
2022-12-18T20:59:31.112Z,10.05
2022-12-18T21:01:59.675Z,11.20
2022-12-18T21:04:27.721Z,11.77
2022-12-18T21:07:02.342Z,10.52
2022-12-18T21:09:37.667Z,10.68
2022-12-18T21:12:30.203Z,11.55
2022-12-18T21:15:07.815Z,12.30
2022-12-18T21:17:44.210Z,14.63
2022-12-18T21:20:17.570Z,14.10
2022-12-18T21:22:47.572Z,13.68
2022-12-18T21:25:16.290Z,13.25
2022-12-18T21:27:44.969Z,12.05
2022-12-18T21:30:14.080Z,13.00
2022-12-18T21:32:41.991Z,12.98
2022-12-18T21:35:09.898Z,12.25
2022-12-18T21:37:37.740Z,12.45
2022-12-18T21:40:06.320Z,14.05
2022-12-18T21:42:52.352Z,13.15
2022-12-18T21:45:20.209Z,13.23
2022-12-18T21:47:47.895Z,15.57
2022-12-18T21:50:15.813Z,12.75
2022-12-18T21:52:43.550Z,12.27
2022-12-18T21:55:11.390Z,12.90
2022-12-18T21:57:39.562Z,14.25
2022-12-18T22:00:17.422Z,15.57
2022-12-18T22:02:48.766Z,14.95
2022-12-18T22:05:36.279Z,20.00
2022-12-18T22:08:04.013Z,14.85
2022-12-18T22:10:32.213Z,13.90
2022-12-18T22:13:00.037Z,13.70
2022-12-18T22:15:27.862Z,13.43
2022-12-18T22:18:00.288Z,11.68
2022-12-18T22:20:29.957Z,12.80
2022-12-18T22:22:59.549Z,12.45
2022-12-18T22:25:31.976Z,12.80
2022-12-18T22:28:18.168Z,14.13
2022-12-18T22:30:45.817Z,15.15
2022-12-18T22:33:13.794Z,21.35
2022-12-18T22:35:41.309Z,12.95
2022-12-18T22:38:10.000Z,13.85
2022-12-18T22:40:37.625Z,13.00
2022-12-18T22:45:34.139Z,13.30
2022-12-18T22:48:06.356Z,13.48
2022-12-18T22:50:33.914Z,12.52
2022-12-18T22:53:01.619Z,13.57
2022-12-18T22:55:29.236Z,13.57
2022-12-18T22:57:57.041Z,13.88
2022-12-18T23:00:24.920Z,13.18
2022-12-18T23:03:00.341Z,13.90
2022-12-18T23:05:30.769Z,13.65
2022-12-18T23:07:59.159Z,13.52
2022-12-18T23:10:27.359Z,12.45
2022-12-18T23:12:55.056Z,13.48
2022-12-18T23:15:27.615Z,11.95
2022-12-18T23:18:02.113Z,14.23
2022-12-18T23:20:29.789Z,12.90
2022-12-18T23:22:57.470Z,12.77
2022-12-18T23:25:25.235Z,11.13
2022-12-18T23:27:52.917Z,11.93
2022-12-18T23:30:20.595Z,10.88
2022-12-18T23:32:48.473Z,10.57
2022-12-18T23:35:17.339Z,11.45
2022-12-18T23:38:02.363Z,11.52
2022-12-18T23:40:30.303Z,11.38
2022-12-18T23:42:59.488Z,11.20
2022-12-18T23:45:27.079Z,10.82
2022-12-18T23:47:55.075Z,10.25
2022-12-18T23:50:24.039Z,11.27
2022-12-18T23:52:57.648Z,10.45
2022-12-18T23:55:32.830Z,10.40
